Skip Navigation LinksHome page > Weather > Current weather Skip Navigation Links

Current Weather

San Francisco International, San Francisco

For information only: do not use for flight planning or navigation.
Latest weather
Observation time Friday, October 31, 2014 7:56 AM PDT
Local time Friday, October 31, 2014 8:31 AM PDT
Flight conditions Visual Meteorological Conditions
Winds
Wind direction South-Southeast (160°)
Wind speed 13 mph
Visibility 10 mi.
Sky condition
Ceiling 10,000 ft. broken clouds
Cloud layer few clouds 1,700 ft.
Cloud layer scattered clouds 2,100 ft.
Cloud layer broken clouds 10,000 ft.
Temperature 64°F
Dewpoint 57°F
Altimeter 29.85 in.Hg
Pressure change last 3 hours0.00 in.Hg
Pressure rising, then falling
Derived measurements
Relative humidity 78%
Density altitude 644 ft.
Sea-level pressure 29.85 in.Hg
Remarks
Automated weather observing station with precipitation discriminator.
METAR KSFO 311456Z 16011KT 10SM FEW017 SCT021 BKN100 18/14 A2985 RMK AO2 SLP109 T01780139 50001

Settings

Location code

InnerDrive.Weather 4.0.5399.0 Release CLR 4.0.30319.34014
Copyright ©2014 Inner Drive Technology. All rights reserved. Portions Copyright ©1986-2014 David Braverman.

Find weather

Site navigation


Skip Navigation Links

Place info

Page info

PayPal - The safer, easier way to pay online!

Return home.

Copyright ©2014 Inner Drive Technology. Purveyors of fine, hand-crafted computer software. Page printed 2014-10-31T15:31:30 UTC.